createdAt,value
2018-02-04T00:00:24.215Z,14.10
2018-02-04T00:02:51.988Z,16.83
2018-02-04T00:05:20.570Z,17.20
2018-02-04T00:07:48.237Z,15.13
2018-02-04T00:10:16.031Z,13.40
2018-02-04T00:12:45.003Z,13.13
2018-02-04T00:15:12.653Z,13.63
2018-02-04T00:17:40.225Z,14.10
2018-02-04T00:20:08.066Z,13.37
2018-02-04T00:22:39.556Z,14.03
2018-02-04T00:25:07.605Z,12.07
2018-02-04T00:27:36.186Z,13.17
2018-02-04T00:30:03.596Z,14.37
2018-02-04T00:32:31.009Z,14.07
2018-02-04T00:34:58.402Z,14.60
2018-02-04T00:37:25.839Z,16.13
2018-02-04T00:39:53.175Z,17.20
2018-02-04T00:42:20.526Z,14.70
2018-02-04T00:44:47.978Z,13.53
2018-02-04T00:47:15.319Z,12.13
2018-02-04T00:49:42.687Z,13.23
2018-02-04T00:52:10.054Z,13.80
2018-02-04T00:54:37.433Z,13.17
2018-02-04T00:57:04.774Z,12.70
2018-02-04T00:59:32.110Z,14.07
2018-02-04T01:01:59.492Z,15.10
2018-02-04T01:04:26.833Z,13.47
2018-02-04T01:06:54.205Z,12.83
2018-02-04T01:09:21.591Z,12.90
2018-02-04T01:11:48.989Z,12.87
2018-02-04T01:14:16.334Z,12.73
2018-02-04T01:16:43.762Z,13.30
2018-02-04T01:19:11.098Z,13.30
2018-02-04T01:21:38.515Z,13.93
2018-02-04T01:24:05.862Z,14.00
2018-02-04T01:26:33.234Z,12.90
2018-02-04T01:29:00.602Z,14.10
2018-02-04T01:31:28.027Z,13.80
2018-02-04T01:33:55.485Z,14.07
2018-02-04T01:36:22.870Z,13.27
2018-02-04T01:38:50.234Z,14.10
2018-02-04T01:41:17.604Z,13.80
2018-02-04T01:43:45.012Z,12.43
2018-02-04T01:46:12.356Z,12.37
2018-02-04T01:48:39.817Z,11.50
2018-02-04T01:51:07.217Z,11.77
2018-02-04T01:53:34.565Z,11.90
2018-02-04T01:56:01.951Z,12.63
2018-02-04T01:58:29.293Z,12.07
2018-02-04T02:00:56.669Z,12.97
2018-02-04T02:03:24.054Z,13.07
2018-02-04T02:05:51.509Z,11.10
2018-02-04T02:08:18.848Z,12.60
2018-02-04T02:10:46.223Z,12.90
2018-02-04T02:13:13.596Z,12.07
2018-02-04T02:15:40.969Z,12.10
2018-02-04T02:18:08.389Z,14.13
2018-02-04T02:20:35.727Z,14.00
2018-02-04T02:23:03.109Z,13.40
2018-02-04T02:25:30.475Z,11.57
2018-02-04T02:27:57.867Z,12.47
2018-02-04T02:30:25.207Z,12.53
2018-02-04T02:32:52.614Z,11.90
2018-02-04T02:35:20.035Z,10.50
2018-02-04T02:37:47.405Z,10.03
2018-02-04T02:40:14.746Z,8.23
2018-02-04T02:42:42.151Z,8.40
2018-02-04T02:45:09.515Z,7.73
2018-02-04T02:47:36.854Z,8.10
2018-02-04T02:50:04.209Z,8.03
2018-02-04T02:52:31.548Z,8.07
2018-02-04T02:54:59.022Z,8.10
2018-02-04T02:57:26.476Z,8.93
2018-02-04T02:59:53.847Z,8.00
2018-02-04T03:02:24.948Z,7.73
2018-02-04T03:04:52.335Z,7.27
2018-02-04T03:07:19.698Z,7.77
2018-02-04T03:09:47.038Z,7.60
2018-02-04T03:12:14.425Z,6.63
2018-02-04T03:14:41.784Z,7.60
2018-02-04T03:17:09.175Z,7.50
2018-02-04T03:19:36.521Z,8.83
2018-02-04T03:22:03.878Z,8.93
2018-02-04T03:24:31.247Z,7.30
2018-02-04T03:26:58.623Z,6.40
2018-02-04T03:29:26.007Z,7.43
2018-02-04T03:31:53.339Z,7.23
2018-02-04T03:34:20.690Z,7.07
2018-02-04T03:36:48.023Z,6.60
2018-02-04T03:39:15.402Z,7.10
2018-02-04T03:41:42.860Z,7.20
2018-02-04T03:44:10.253Z,6.70
2018-02-04T03:46:37.665Z,7.40
2018-02-04T03:49:05.069Z,18.70
2018-02-04T03:51:32.429Z,27.42
2018-02-04T03:53:59.773Z,15.10
2018-02-04T03:56:27.134Z,11.73
2018-02-04T03:58:54.498Z,8.83
2018-02-04T04:01:21.853Z,7.53
2018-02-04T04:03:49.213Z,6.77
2018-02-04T04:06:16.567Z,7.30
2018-02-04T04:08:43.897Z,7.60
2018-02-04T04:11:11.263Z,7.33
2018-02-04T04:13:38.624Z,8.80
2018-02-04T04:16:05.942Z,8.03
2018-02-04T04:18:33.385Z,7.80
2018-02-04T04:21:00.708Z,7.27
2018-02-04T04:23:28.081Z,7.87
2018-02-04T04:25:55.410Z,8.50
2018-02-04T04:28:22.763Z,6.87
2018-02-04T04:30:50.155Z,7.03
2018-02-04T04:33:17.612Z,7.70
2018-02-04T04:35:44.972Z,7.10
2018-02-04T04:38:12.424Z,7.20
2018-02-04T04:40:39.757Z,7.87
2018-02-04T04:43:07.122Z,8.40
2018-02-04T04:45:34.471Z,7.63
2018-02-04T04:48:01.809Z,7.90
2018-02-04T04:50:29.179Z,7.73
2018-02-04T04:52:56.503Z,7.60
2018-02-04T04:55:24.011Z,8.00
2018-02-04T04:57:51.367Z,8.43
2018-02-04T05:00:18.745Z,7.53
2018-02-04T05:02:46.066Z,7.50
2018-02-04T05:05:13.434Z,8.90
2018-02-04T05:07:40.780Z,7.67
2018-02-04T05:10:08.251Z,7.33
2018-02-04T05:12:35.626Z,7.73
2018-02-04T05:15:03.057Z,7.93
2018-02-04T05:17:30.400Z,7.87
2018-02-04T05:19:57.769Z,8.33
2018-02-04T05:22:25.266Z,8.80
2018-02-04T05:24:52.586Z,8.33
2018-02-04T05:27:19.986Z,7.80
2018-02-04T05:29:47.396Z,7.00
2018-02-04T05:32:14.853Z,7.97
2018-02-04T05:34:42.177Z,8.10
2018-02-04T05:37:09.544Z,7.40
2018-02-04T05:39:36.873Z,7.50
2018-02-04T05:42:04.235Z,8.80
2018-02-04T05:44:31.606Z,7.57
2018-02-04T05:46:58.946Z,10.00
2018-02-04T05:49:26.315Z,8.43
2018-02-04T05:51:53.689Z,7.63
2018-02-04T05:54:21.068Z,6.70
2018-02-04T05:56:48.387Z,8.00
2018-02-04T05:59:15.777Z,11.43
2018-02-04T06:01:43.110Z,10.57
2018-02-04T06:04:10.487Z,9.57
2018-02-04T06:06:37.823Z,10.33
2018-02-04T06:09:05.274Z,10.43
2018-02-04T06:11:32.737Z,9.23
2018-02-04T06:14:00.128Z,7.80
2018-02-04T06:16:27.472Z,9.97
2018-02-04T06:18:54.895Z,9.83
2018-02-04T06:21:22.263Z,8.30
2018-02-04T06:23:49.598Z,10.70
2018-02-04T06:26:16.963Z,9.97
2018-02-04T06:28:44.326Z,10.33
2018-02-04T06:31:11.780Z,9.43
2018-02-04T06:33:39.113Z,10.43
2018-02-04T06:36:06.505Z,11.20
2018-02-04T06:38:33.870Z,11.50
2018-02-04T06:41:01.248Z,10.10
2018-02-04T06:43:28.652Z,10.57
2018-02-04T06:45:56.042Z,13.67
2018-02-04T06:48:23.409Z,13.93
2018-02-04T06:50:50.807Z,9.87
2018-02-04T06:53:18.143Z,9.03
2018-02-04T06:55:45.502Z,8.93
2018-02-04T06:58:12.883Z,10.67
2018-02-04T07:00:40.232Z,8.93
2018-02-04T07:03:07.699Z,9.30
2018-02-04T07:05:35.027Z,9.80
2018-02-04T07:08:02.386Z,9.07
2018-02-04T07:10:29.741Z,10.23
2018-02-04T07:12:57.115Z,9.93
2018-02-04T07:15:24.449Z,9.93
2018-02-04T07:17:51.827Z,9.13
2018-02-04T07:20:19.186Z,10.33
2018-02-04T07:22:46.537Z,10.73
2018-02-04T07:25:13.912Z,10.27
2018-02-04T07:27:41.258Z,10.50
2018-02-04T07:30:08.623Z,12.13
2018-02-04T07:32:36.062Z,10.73
2018-02-04T07:35:03.408Z,11.97
2018-02-04T07:37:30.970Z,14.70
2018-02-04T07:39:58.354Z,13.83
2018-02-04T07:42:25.730Z,59.60
2018-02-04T07:44:53.074Z,13.73
2018-02-04T07:47:20.468Z,10.80
2018-02-04T07:49:47.814Z,11.10
2018-02-04T07:52:15.182Z,10.30
2018-02-04T07:54:42.522Z,11.03
2018-02-04T07:57:09.904Z,10.90
2018-02-04T07:59:37.266Z,11.27
2018-02-04T08:02:04.603Z,11.17
2018-02-04T08:04:31.966Z,10.87
2018-02-04T08:06:59.310Z,10.87
2018-02-04T08:09:26.670Z,11.70
2018-02-04T08:11:54.010Z,11.77
2018-02-04T08:14:21.374Z,44.93
2018-02-04T08:16:48.724Z,12.10
2018-02-04T08:19:16.096Z,11.70
2018-02-04T08:21:43.425Z,11.60
2018-02-04T08:24:10.792Z,11.47
2018-02-04T08:26:38.157Z,10.37
2018-02-04T08:29:05.505Z,10.77
2018-02-04T08:31:32.872Z,11.03
2018-02-04T08:34:00.208Z,11.53
2018-02-04T08:36:27.563Z,12.30
2018-02-04T08:38:54.911Z,10.67
2018-02-04T08:41:22.276Z,12.73
2018-02-04T08:43:49.610Z,9.63
2018-02-04T08:46:16.973Z,11.20
2018-02-04T08:48:44.309Z,11.10
2018-02-04T08:51:11.682Z,11.20
2018-02-04T08:53:39.024Z,12.37
2018-02-04T08:56:06.358Z,11.53
2018-02-04T08:58:33.721Z,11.90
2018-02-04T09:01:01.071Z,11.37
2018-02-04T09:03:28.448Z,11.83
2018-02-04T09:05:55.790Z,11.80
2018-02-04T09:08:23.157Z,13.20
2018-02-04T09:10:50.503Z,12.03
2018-02-04T09:13:17.873Z,11.63
2018-02-04T09:15:45.209Z,12.53
2018-02-04T09:18:12.561Z,12.17
2018-02-04T09:20:39.929Z,12.83
2018-02-04T09:23:07.262Z,13.40
2018-02-04T09:25:34.651Z,11.30
2018-02-04T09:28:01.986Z,12.67
2018-02-04T09:30:29.377Z,14.30
2018-02-04T09:32:56.736Z,11.80
2018-02-04T09:35:24.095Z,12.93
2018-02-04T09:37:51.437Z,13.10
2018-02-04T09:40:18.814Z,11.60
2018-02-04T09:42:46.242Z,12.60
2018-02-04T09:45:13.582Z,13.50
2018-02-04T09:47:40.954Z,12.40
2018-02-04T09:50:08.292Z,12.50
2018-02-04T09:52:35.662Z,12.27
2018-02-04T09:55:03.001Z,13.90
2018-02-04T09:57:30.367Z,12.80
2018-02-04T09:59:57.710Z,14.93
2018-02-04T10:02:25.072Z,13.07
2018-02-04T10:04:52.420Z,12.53
2018-02-04T10:07:19.794Z,13.20
2018-02-04T10:09:47.159Z,11.57
2018-02-04T10:12:14.499Z,13.43
2018-02-04T10:14:41.865Z,12.70
2018-02-04T10:17:09.203Z,12.63
2018-02-04T10:19:36.565Z,12.50
2018-02-04T10:22:03.913Z,11.53
2018-02-04T10:24:31.275Z,10.27
2018-02-04T10:26:58.617Z,12.07
2018-02-04T10:29:25.997Z,13.10
2018-02-04T10:31:53.330Z,11.43
2018-02-04T10:34:21.290Z,12.40
2018-02-04T10:36:49.962Z,24.33
2018-02-04T10:39:18.301Z,12.80
2018-02-04T10:41:46.167Z,12.57
2018-02-04T10:44:13.991Z,12.97
2018-02-04T10:46:41.798Z,13.70
2018-02-04T10:49:09.176Z,11.30
2018-02-04T10:51:42.407Z,13.00
2018-02-04T10:54:09.785Z,13.80
2018-02-04T10:56:37.122Z,12.53
2018-02-04T10:59:04.484Z,13.03
2018-02-04T11:01:31.855Z,10.47
2018-02-04T11:03:59.210Z,7.50
2018-02-04T11:06:26.884Z,4.60
2018-02-04T11:08:54.751Z,3.67
2018-02-04T11:11:23.341Z,3.30
2018-02-04T11:13:51.306Z,4.00
2018-02-04T11:16:19.078Z,3.43
2018-02-04T11:18:46.938Z,3.80
2018-02-04T11:21:14.644Z,4.00
2018-02-04T11:23:42.260Z,4.67
2018-02-04T11:26:09.654Z,4.57
2018-02-04T11:28:37.012Z,4.30
2018-02-04T11:31:10.231Z,4.20
2018-02-04T11:33:37.558Z,4.50
2018-02-04T11:36:04.913Z,4.20
2018-02-04T11:38:32.266Z,4.30
2018-02-04T11:40:59.629Z,4.00
2018-02-04T11:43:26.954Z,3.37
2018-02-04T11:45:54.284Z,2.80
2018-02-04T11:48:21.670Z,3.20
2018-02-04T11:50:48.990Z,3.30
2018-02-04T11:53:16.339Z,4.20
2018-02-04T11:55:43.667Z,6.03
2018-02-04T11:58:11.028Z,7.00
2018-02-04T12:00:38.829Z,5.93
2018-02-04T12:03:06.599Z,5.17
2018-02-04T12:05:34.223Z,4.47
2018-02-04T12:08:01.816Z,4.33
2018-02-04T12:10:29.274Z,5.60
2018-02-04T12:12:56.834Z,7.70
2018-02-04T12:15:24.497Z,5.87
2018-02-04T12:17:52.100Z,5.67
2018-02-04T12:20:19.834Z,7.70
2018-02-04T12:22:47.993Z,6.10
2018-02-04T12:25:16.643Z,3.70
2018-02-04T12:27:44.564Z,2.90
2018-02-04T12:30:13.450Z,3.23
2018-02-04T12:32:42.301Z,2.67
2018-02-04T12:35:11.191Z,3.07
2018-02-04T12:37:40.250Z,2.40
2018-02-04T12:40:09.036Z,2.20
2018-02-04T12:42:37.737Z,2.43
2018-02-04T12:45:06.205Z,2.70
2018-02-04T12:47:33.862Z,9.87
2018-02-04T12:50:01.278Z,5.30
2018-02-04T12:52:28.784Z,3.30
2018-02-04T12:54:56.225Z,3.03
2018-02-04T12:57:23.660Z,2.53
2018-02-04T12:59:52.256Z,3.20
2018-02-04T13:02:21.357Z,3.00
2018-02-04T13:04:50.639Z,3.27
2018-02-04T13:07:18.199Z,4.47
2018-02-04T13:11:06.889Z,9.47
2018-02-04T13:13:34.451Z,11.97
2018-02-04T13:16:01.884Z,8.67
2018-02-04T13:18:29.666Z,9.37
2018-02-04T13:20:58.030Z,8.70
2018-02-04T13:23:25.991Z,7.07
2018-02-04T13:25:53.618Z,6.50
2018-02-04T13:28:21.730Z,5.20
2018-02-04T13:30:50.431Z,5.63
2018-02-04T13:33:17.970Z,6.07
2018-02-04T13:35:45.354Z,7.47
2018-02-04T13:38:12.686Z,7.50
2018-02-04T13:40:40.050Z,6.80
2018-02-04T13:43:07.392Z,4.90
2018-02-04T13:45:34.710Z,4.50
2018-02-04T13:48:02.063Z,4.97
2018-02-04T13:50:29.394Z,6.07
2018-02-04T13:52:56.750Z,6.23
2018-02-04T13:55:24.077Z,6.30
2018-02-04T13:57:51.443Z,8.60
2018-02-04T14:00:18.771Z,7.23
2018-02-04T14:02:46.135Z,6.20
2018-02-04T14:05:13.466Z,6.57
2018-02-04T14:07:40.823Z,6.47
2018-02-04T14:10:08.153Z,6.37
2018-02-04T14:12:35.511Z,6.27
2018-02-04T14:15:02.855Z,9.77
2018-02-04T14:17:30.258Z,11.77
2018-02-04T14:19:57.629Z,12.50
2018-02-04T14:22:24.958Z,7.63
2018-02-04T14:24:52.311Z,4.87
2018-02-04T14:27:19.646Z,5.00
2018-02-04T14:29:47.003Z,4.80
2018-02-04T14:32:14.325Z,4.60
2018-02-04T14:34:41.683Z,4.97
2018-02-04T14:37:09.038Z,4.80
2018-02-04T14:39:36.395Z,6.20
2018-02-04T14:42:03.910Z,4.30
2018-02-04T14:44:31.252Z,6.20
2018-02-04T14:46:58.602Z,6.07
2018-02-04T14:49:25.919Z,7.63
2018-02-04T14:51:53.271Z,8.37
2018-02-04T14:54:20.617Z,8.87
2018-02-04T14:56:47.987Z,9.37
2018-02-04T14:59:15.322Z,9.60
2018-02-04T15:01:42.706Z,9.60
2018-02-04T15:04:10.041Z,7.73
2018-02-04T15:06:37.473Z,6.10
2018-02-04T15:09:04.776Z,7.23
2018-02-04T15:11:32.153Z,7.43
2018-02-04T15:13:59.494Z,6.50
2018-02-04T15:16:26.821Z,6.60
2018-02-04T15:18:54.181Z,6.47
2018-02-04T15:21:21.502Z,5.43
2018-02-04T15:23:48.861Z,11.50
2018-02-04T15:26:16.208Z,8.13
2018-02-04T15:28:43.563Z,5.80
2018-02-04T15:31:10.894Z,7.77
2018-02-04T15:33:38.879Z,8.50
2018-02-04T15:36:06.238Z,8.77
2018-02-04T15:38:33.602Z,7.77
2018-02-04T15:41:00.939Z,8.20
2018-02-04T15:43:28.295Z,7.90
2018-02-04T15:45:55.630Z,8.20
2018-02-04T15:48:22.989Z,8.13
2018-02-04T15:50:50.328Z,7.57
2018-02-04T15:53:17.733Z,7.90
2018-02-04T15:55:45.070Z,7.50
2018-02-04T15:58:12.437Z,7.80
2018-02-04T16:00:39.774Z,8.33
2018-02-04T16:03:07.102Z,8.17
2018-02-04T16:05:34.456Z,7.50
2018-02-04T16:08:01.810Z,7.50
2018-02-04T16:10:29.165Z,8.73
2018-02-04T16:12:56.498Z,9.83
2018-02-04T16:15:23.858Z,8.93
2018-02-04T16:17:51.201Z,9.77
2018-02-04T16:20:18.568Z,10.30
2018-02-04T16:22:45.906Z,9.97
2018-02-04T16:25:13.286Z,10.30
2018-02-04T16:27:40.679Z,11.33
2018-02-04T16:30:08.037Z,10.20
2018-02-04T16:32:35.488Z,10.03
2018-02-04T16:35:02.876Z,13.00
2018-02-04T16:37:30.223Z,12.20
2018-02-04T16:39:57.592Z,14.27
2018-02-04T16:42:24.928Z,14.00
2018-02-04T16:44:52.335Z,12.37
2018-02-04T16:47:19.719Z,11.60
2018-02-04T16:49:47.056Z,8.23
2018-02-04T16:52:14.447Z,8.50
2018-02-04T16:54:41.886Z,11.87
2018-02-04T16:57:09.345Z,12.30
2018-02-04T16:59:36.677Z,15.57
2018-02-04T17:02:04.038Z,12.83
2018-02-04T17:04:31.376Z,13.53
2018-02-04T17:06:58.930Z,13.93
2018-02-04T17:09:26.272Z,12.47
2018-02-04T17:11:53.684Z,13.97
2018-02-04T17:14:21.066Z,13.90
2018-02-04T17:16:48.490Z,9.07
2018-02-04T17:19:15.851Z,11.20
2018-02-04T17:21:43.307Z,9.80
2018-02-04T17:24:10.671Z,10.70
2018-02-04T17:26:38.024Z,11.77
2018-02-04T17:29:05.382Z,11.40
2018-02-04T17:31:32.728Z,11.47
2018-02-04T17:34:00.139Z,10.27
2018-02-04T17:36:27.478Z,11.63
2018-02-04T17:38:54.815Z,9.90
2018-02-04T17:41:22.182Z,13.90
2018-02-04T17:43:49.531Z,15.70
2018-02-04T17:46:16.895Z,15.23
2018-02-04T17:48:44.237Z,16.20
2018-02-04T17:51:11.614Z,12.17
2018-02-04T17:53:38.953Z,11.87
2018-02-04T17:56:06.382Z,10.60
2018-02-04T17:58:33.775Z,11.20
2018-02-04T18:01:01.079Z,10.17
2018-02-04T18:03:28.448Z,11.23
2018-02-04T18:05:55.791Z,10.33
2018-02-04T18:08:23.155Z,11.70
2018-02-04T18:10:50.500Z,11.73
2018-02-04T18:13:17.870Z,11.50
2018-02-04T18:15:45.264Z,11.40
2018-02-04T18:18:12.634Z,11.27
2018-02-04T18:20:39.981Z,12.10
2018-02-04T18:23:07.383Z,13.80
2018-02-04T18:25:34.837Z,14.77
2018-02-04T18:28:02.204Z,14.07
2018-02-04T18:30:29.577Z,12.90
2018-02-04T18:32:57.209Z,13.70
2018-02-04T18:35:24.602Z,13.27
2018-02-04T18:37:51.971Z,14.80
2018-02-04T18:40:19.338Z,14.70
2018-02-04T18:42:46.688Z,13.23
2018-02-04T18:45:14.051Z,14.50
2018-02-04T18:47:41.428Z,16.83
2018-02-04T18:50:08.815Z,21.00
2018-02-04T18:52:36.223Z,18.90
2018-02-04T18:55:04.155Z,13.40
2018-02-04T18:57:32.801Z,11.87
2018-02-04T19:00:00.218Z,11.60
2018-02-04T19:02:27.625Z,12.03
2018-02-04T19:04:55.073Z,11.13
2018-02-04T19:07:22.444Z,11.37
2018-02-04T19:09:49.893Z,12.30
2018-02-04T19:12:17.305Z,12.33
2018-02-04T19:14:44.657Z,12.87
2018-02-04T19:17:12.025Z,11.90
2018-02-04T19:19:39.432Z,13.23
2018-02-04T19:22:06.907Z,18.00
2018-02-04T19:24:34.241Z,18.33
2018-02-04T19:27:01.657Z,13.03
2018-02-04T19:29:28.997Z,15.10
2018-02-04T19:31:56.339Z,12.97
2018-02-04T19:34:23.747Z,11.90
2018-02-04T19:36:51.085Z,11.93
2018-02-04T19:39:18.480Z,14.40
2018-02-04T19:41:45.926Z,11.57
2018-02-04T19:44:13.391Z,10.03
2018-02-04T19:46:40.757Z,9.70
2018-02-04T19:49:08.126Z,11.67
2018-02-04T19:51:35.480Z,11.73
2018-02-04T19:54:02.868Z,11.00
2018-02-04T19:56:30.273Z,11.13
2018-02-04T19:58:57.712Z,10.93
2018-02-04T20:01:25.250Z,11.83
2018-02-04T20:03:52.708Z,11.60
2018-02-04T20:06:20.155Z,11.23
2018-02-04T20:08:47.507Z,11.00
2018-02-04T20:11:14.893Z,11.40
2018-02-04T20:13:42.250Z,12.63
2018-02-04T20:16:09.646Z,11.47
2018-02-04T20:18:37.063Z,14.83
2018-02-04T20:21:04.396Z,12.27
2018-02-04T20:23:31.899Z,12.37
2018-02-04T20:25:59.306Z,11.80
2018-02-04T20:28:26.689Z,11.80
2018-02-04T20:30:54.076Z,12.33
2018-02-04T20:33:23.218Z,11.20
2018-02-04T20:35:50.577Z,11.93
2018-02-04T20:38:20.701Z,9.37
2018-02-04T20:40:48.189Z,10.87
2018-02-04T20:43:15.553Z,9.93
2018-02-04T20:45:42.965Z,11.17
2018-02-04T20:48:10.315Z,10.67
2018-02-04T20:50:37.718Z,10.40
2018-02-04T20:53:05.067Z,10.13
2018-02-04T20:55:32.454Z,9.43
2018-02-04T20:58:00.177Z,10.77
2018-02-04T21:00:27.545Z,9.93
2018-02-04T21:02:54.884Z,11.70
2018-02-04T21:05:22.263Z,10.60
2018-02-04T21:07:49.669Z,10.20
2018-02-04T21:10:17.062Z,12.17
2018-02-04T21:12:44.477Z,11.40
2018-02-04T21:15:11.868Z,11.33
2018-02-04T21:17:39.253Z,10.67
2018-02-04T21:20:06.625Z,11.17
2018-02-04T21:22:34.109Z,10.77
2018-02-04T21:25:01.771Z,10.90
2018-02-04T21:27:29.169Z,12.43
2018-02-04T21:29:56.553Z,12.50
2018-02-04T21:32:23.890Z,13.20
2018-02-04T21:34:51.253Z,12.30
2018-02-04T21:37:18.598Z,11.77
2018-02-04T21:39:46.018Z,12.43
2018-02-04T21:42:13.370Z,13.33
2018-02-04T21:44:40.741Z,13.30
2018-02-04T21:47:08.164Z,12.83
2018-02-04T21:49:35.569Z,12.73
2018-02-04T21:52:02.910Z,13.07
2018-02-04T21:54:30.262Z,12.53
2018-02-04T21:56:57.627Z,13.23
2018-02-04T21:59:24.961Z,11.73
2018-02-04T22:01:52.393Z,11.93
2018-02-04T22:04:19.765Z,12.60
2018-02-04T22:06:47.139Z,11.50
2018-02-04T22:09:14.479Z,11.70
2018-02-04T22:11:41.871Z,11.00
2018-02-04T22:14:09.217Z,11.93
2018-02-04T22:16:36.561Z,12.00
2018-02-04T22:19:03.930Z,11.77
2018-02-04T22:21:31.314Z,12.93
2018-02-04T22:23:58.682Z,12.27
2018-02-04T22:26:26.027Z,12.30
2018-02-04T22:28:53.417Z,12.83
2018-02-04T22:31:20.759Z,11.97
2018-02-04T22:33:48.128Z,13.20
2018-02-04T22:36:15.469Z,14.30
2018-02-04T22:38:42.834Z,13.13
2018-02-04T22:41:10.278Z,12.27
2018-02-04T22:43:37.680Z,13.57
2018-02-04T22:46:05.048Z,13.00
2018-02-04T22:48:32.391Z,13.30
2018-02-04T22:50:59.763Z,14.23
2018-02-04T22:53:27.131Z,13.40
2018-02-04T22:55:54.489Z,14.20
2018-02-04T22:58:21.825Z,12.90
2018-02-04T23:00:49.235Z,13.80
2018-02-04T23:03:16.577Z,13.80
2018-02-04T23:05:43.943Z,13.17
2018-02-04T23:08:11.286Z,14.50
2018-02-04T23:10:38.658Z,14.70
2018-02-04T23:13:06.011Z,12.73
2018-02-04T23:15:33.365Z,13.53
2018-02-04T23:18:00.739Z,15.17
2018-02-04T23:20:28.081Z,15.50
2018-02-04T23:22:55.480Z,15.00
2018-02-04T23:25:22.819Z,14.90
2018-02-04T23:27:50.205Z,15.57
2018-02-04T23:30:17.788Z,14.87
2018-02-04T23:32:45.239Z,14.90
2018-02-04T23:35:12.581Z,15.70
2018-02-04T23:37:39.924Z,14.40
2018-02-04T23:40:07.294Z,15.97
2018-02-04T23:42:34.665Z,14.07
2018-02-04T23:45:02.060Z,15.57
2018-02-04T23:47:29.391Z,14.77
2018-02-04T23:49:56.781Z,16.27
2018-02-04T23:52:24.115Z,14.90
2018-02-04T23:54:51.452Z,15.23
2018-02-04T23:57:18.833Z,16.40
2018-02-04T23:59:46.245Z,15.70
